Time;durP1;ratioP1;P1;durP2;ratioP2;P2;SDS_P1;SDS_P2;PMS_P1;PMS_P2;Temp;Humidity;BMP_temperature;BMP_pressure;BME280_temperature;BME280_humidity;BME280_pressure;Samples;Min_cycle;Max_cycle;Signal;HPM_P1;HPM_P2
2023/09/22 00:01:23;;;;;;;8.60;4.07;;;;;;;;;;6338311;28;20454;-64
2023/09/22 00:04:25;;;;;;;10.25;4.45;;;;;;;;;;6338381;28;20046;-63
2023/09/22 00:07:27;;;;;;;8.55;5.47;;;;;;;;;;6339297;28;20812;-63
2023/09/22 00:10:30;;;;;;;9.68;4.38;;;;;;;;;;6338556;28;20574;-63
2023/09/22 00:13:32;;;;;;;8.32;5.70;;;;;;;;;;6337650;28;20070;-63
2023/09/22 00:16:36;;;;;;;8.00;3.47;;;;;;;;;;6333899;28;20537;-63
2023/09/22 00:19:38;;;;;;;13.43;7.82;;;;;;;;;;6339343;27;20051;-63
2023/09/22 00:22:43;;;;;;;10.55;6.80;;;;;;;;;;6337282;28;20043;-63
2023/09/22 00:25:45;;;;;;;10.88;7.00;;;;;;;;;;6338859;28;20047;-63
2023/09/22 00:28:48;;;;;;;12.45;7.00;;;;;;;;;;6337813;28;20036;-63
2023/09/22 00:31:50;;;;;;;10.80;6.60;;;;;;;;;;6331880;28;20044;-63
2023/09/22 00:34:52;;;;;;;10.68;8.10;;;;;;;;;;6328458;28;20048;-63
2023/09/22 00:37:54;;;;;;;12.85;7.85;;;;;;;;;;6328887;28;20047;-63
2023/09/22 00:40:56;;;;;;;9.73;8.70;;;;;;;;;;6337074;28;20074;-63
2023/09/22 00:43:58;;;;;;;14.27;8.20;;;;;;;;;;6337257;27;20046;-62
2023/09/22 00:47:02;;;;;;;9.43;4.60;;;;;;;;;;6335934;27;20560;-63
2023/09/22 00:50:09;;;;;;;9.95;7.53;;;;;;;;;;6337729;28;20510;-63
2023/09/22 00:53:13;;;;;;;10.10;5.35;;;;;;;;;;6318524;28;20430;-63
2023/09/22 00:56:19;;;;;;;10.63;5.43;;;;;;;;;;6321713;28;20042;-63
2023/09/22 00:59:21;;;;;;;11.98;6.95;;;;;;;;;;6323786;28;20051;-65
2023/09/22 01:02:26;;;;;;;10.45;7.10;;;;;;;;;;6303713;28;20047;-63
2023/09/22 01:05:32;;;;;;;10.23;7.80;;;;;;;;;;6331568;28;20048;-63
2023/09/22 01:08:34;;;;;;;12.70;8.40;;;;;;;;;;6325218;28;20047;-64
2023/09/22 01:11:37;;;;;;;12.63;7.45;;;;;;;;;;6336338;27;20043;-64
2023/09/22 01:14:40;;;;;;;15.00;8.50;;;;;;;;;;6336444;28;20039;-64
2023/09/22 01:17:43;;;;;;;10.88;7.93;;;;;;;;;;6325415;27;20059;-62
2023/09/22 01:20:46;;;;;;;10.70;8.15;;;;;;;;;;6333145;28;20040;-64
2023/09/22 01:23:48;;;;;;;9.27;8.23;;;;;;;;;;6335827;28;20067;-64
2023/09/22 01:26:50;;;;;;;10.00;6.50;;;;;;;;;;6327136;28;20044;-64
2023/09/22 01:29:52;;;;;;;10.90;8.07;;;;;;;;;;6336115;28;20147;-64
2023/09/22 01:32:54;;;;;;;13.48;9.73;;;;;;;;;;6334970;28;20052;-63
2023/09/22 01:35:57;;;;;;;13.48;8.88;;;;;;;;;;6335574;28;20040;-64
2023/09/22 01:39:01;;;;;;;9.52;6.65;;;;;;;;;;6335137;28;20720;-65
2023/09/22 01:42:04;;;;;;;15.82;9.38;;;;;;;;;;6319918;28;20055;-65
2023/09/22 01:45:06;;;;;;;10.35;8.25;;;;;;;;;;6326877;28;20043;-65
2023/09/22 01:48:09;;;;;;;13.13;7.35;;;;;;;;;;6322214;28;20469;-65
2023/09/22 01:51:12;;;;;;;13.63;9.02;;;;;;;;;;6333141;28;20040;-65
2023/09/22 01:54:15;;;;;;;10.73;7.60;;;;;;;;;;6335868;28;20044;-66
2023/09/22 01:57:19;;;;;;;10.15;5.07;;;;;;;;;;6322713;28;20554;-65
2023/09/22 02:00:22;;;;;;;10.43;7.90;;;;;;;;;;6324339;27;20048;-65
2023/09/22 02:03:24;;;;;;;10.68;8.43;;;;;;;;;;6340112;28;20168;-65
2023/09/22 02:06:27;;;;;;;12.15;8.23;;;;;;;;;;6334973;28;20522;-65
2023/09/22 02:09:29;;;;;;;11.35;8.23;;;;;;;;;;6338647;28;20051;-65
2023/09/22 02:12:31;;;;;;;10.20;7.72;;;;;;;;;;6333923;28;20070;-65
2023/09/22 02:15:33;;;;;;;9.63;7.57;;;;;;;;;;6329268;28;20059;-65
2023/09/22 02:18:35;;;;;;;11.43;8.35;;;;;;;;;;6337664;28;20048;-64
2023/09/22 02:21:37;;;;;;;11.68;8.32;;;;;;;;;;6323330;28;20050;-64
2023/09/22 02:24:40;;;;;;;11.50;10.35;;;;;;;;;;6342949;28;20055;-63
2023/09/22 02:27:51;;;;;;;13.27;9.10;;;;;;;;;;6344011;27;20062;-64
2023/09/22 02:30:53;;;;;;;9.85;8.18;;;;;;;;;;6334780;28;20085;-63
2023/09/22 02:33:55;;;;;;;12.10;8.45;;;;;;;;;;6348803;27;20040;-64
2023/09/22 02:36:58;;;;;;;10.02;9.00;;;;;;;;;;6340080;28;20047;-64
2023/09/22 02:40:02;;;;;;;12.43;6.07;;;;;;;;;;6320366;28;20078;-64
2023/09/22 02:43:06;;;;;;;11.43;8.45;;;;;;;;;;6320682;28;20152;-64
2023/09/22 02:46:09;;;;;;;10.75;9.27;;;;;;;;;;6340137;28;20059;-64
2023/09/22 02:49:11;;;;;;;10.52;7.75;;;;;;;;;;6332558;28;20099;-63
2023/09/22 02:52:14;;;;;;;12.52;10.60;;;;;;;;;;6337963;28;20509;-65
2023/09/22 02:55:16;;;;;;;9.13;5.82;;;;;;;;;;6339575;28;20559;-64
2023/09/22 02:58:23;;;;;;;12.00;7.60;;;;;;;;;;6362668;27;20058;-64
2023/09/22 03:01:26;;;;;;;11.90;8.50;;;;;;;;;;6329370;28;20044;-64
2023/09/22 03:04:30;;;;;;;9.60;8.02;;;;;;;;;;6330292;28;20047;-64
2023/09/22 03:07:32;;;;;;;13.48;8.38;;;;;;;;;;6328110;28;20043;-64
2023/09/22 03:10:34;;;;;;;11.32;9.70;;;;;;;;;;6323854;28;20055;-65
2023/09/22 03:13:36;;;;;;;13.30;8.63;;;;;;;;;;6339026;27;20051;-64
2023/09/22 03:16:41;;;;;;;11.90;8.00;;;;;;;;;;6327509;28;20602;-64
2023/09/22 03:19:44;;;;;;;10.75;9.65;;;;;;;;;;6329074;28;20659;-64
2023/09/22 03:22:46;;;;;;;11.68;8.35;;;;;;;;;;6323756;27;20131;-64
2023/09/22 03:25:48;;;;;;;9.32;7.80;;;;;;;;;;6338426;28;20127;-64
2023/09/22 03:28:51;;;;;;;10.88;9.13;;;;;;;;;;6327633;28;20047;-64
2023/09/22 03:31:53;;;;;;;12.25;9.13;;;;;;;;;;6320492;28;20062;-63
2023/09/22 03:34:57;;;;;;;10.48;8.95;;;;;;;;;;6321596;28;20569;-64
2023/09/22 03:37:59;;;;;;;12.75;9.00;;;;;;;;;;6328766;28;20051;-63
2023/09/22 03:41:01;;;;;;;15.95;9.00;;;;;;;;;;6326004;28;20136;-63
2023/09/22 03:44:04;;;;;;;12.27;9.40;;;;;;;;;;6329193;28;20040;-63
2023/09/22 03:47:06;;;;;;;11.98;8.73;;;;;;;;;;6338706;28;20051;-63
2023/09/22 03:50:10;;;;;;;14.00;9.07;;;;;;;;;;6330723;28;20046;-63
2023/09/22 03:53:13;;;;;;;12.70;8.73;;;;;;;;;;6318968;28;20080;-64
2023/09/22 03:56:15;;;;;;;9.80;7.55;;;;;;;;;;6338253;28;20434;-64
2023/09/22 03:59:19;;;;;;;12.27;8.75;;;;;;;;;;6353674;27;20047;-64
2023/09/22 04:02:21;;;;;;;15.05;9.10;;;;;;;;;;6338096;28;20123;-64
2023/09/22 04:05:24;;;;;;;13.55;9.32;;;;;;;;;;6344831;27;20043;-63
2023/09/22 04:08:26;;;;;;;10.10;8.25;;;;;;;;;;6331843;28;20129;-64
2023/09/22 04:11:28;;;;;;;11.93;10.38;;;;;;;;;;6332136;28;20048;-65
2023/09/22 04:14:30;;;;;;;12.75;10.77;;;;;;;;;;6327517;28;20174;-64
2023/09/22 04:17:32;;;;;;;11.50;8.90;;;;;;;;;;6327457;28;20044;-63
2023/09/22 04:20:37;;;;;;;16.65;10.88;;;;;;;;;;6327146;28;20189;-63
2023/09/22 04:23:45;;;;;;;11.25;8.90;;;;;;;;;;6332412;28;20060;-64
2023/09/22 04:26:49;;;;;;;8.23;5.53;;;;;;;;;;6336221;28;20268;-64
2023/09/22 04:29:51;;;;;;;11.45;9.35;;;;;;;;;;6326736;28;20066;-63
2023/09/22 04:32:54;;;;;;;10.70;8.63;;;;;;;;;;6337330;28;20048;-64
2023/09/22 04:36:16;;;;;;;9.70;8.65;;;;;;;;;;6323520;27;20073;-64
2023/09/22 04:40:23;;;;;;;12.13;10.35;;;;;;;;;;6307570;28;20051;-64
2023/09/22 04:43:25;;;;;;;11.07;8.35;;;;;;;;;;6334336;28;20039;-64
2023/09/22 04:46:27;;;;;;;9.25;5.78;;;;;;;;;;6320159;28;20548;-74
2023/09/22 04:49:29;;;;;;;16.70;9.48;;;;;;;;;;6314744;28;20528;-72
2023/09/22 04:52:33;;;;;;;12.63;8.35;;;;;;;;;;6334930;28;20040;-72
2023/09/22 04:55:37;;;;;;;13.60;8.40;;;;;;;;;;6324395;28;20089;-73
2023/09/22 04:58:40;;;;;;;12.52;7.93;;;;;;;;;;6326222;28;20060;-73
2023/09/22 05:02:01;;;;;;;11.30;8.15;;;;;;;;;;6341317;28;20043;-73
2023/09/22 05:05:03;;;;;;;15.00;10.00;;;;;;;;;;6328864;28;20048;-74
2023/09/22 05:08:05;;;;;;;9.15;7.32;;;;;;;;;;6293657;28;20047;-72
2023/09/22 05:11:08;;;;;;;9.85;7.57;;;;;;;;;;6328106;28;20040;-73
2023/09/22 05:14:10;;;;;;;10.55;7.65;;;;;;;;;;6337416;28;20054;-73
2023/09/22 05:17:14;;;;;;;9.57;7.28;;;;;;;;;;6316094;28;20066;-73
2023/09/22 05:20:19;;;;;;;9.18;6.20;;;;;;;;;;6330097;28;20051;-73
2023/09/22 05:23:23;;;;;;;12.25;7.30;;;;;;;;;;6309128;28;20051;-73
2023/09/22 05:26:26;;;;;;;12.35;7.22;;;;;;;;;;6311802;28;20048;-72
2023/09/22 05:29:28;;;;;;;14.95;7.75;;;;;;;;;;6344627;27;20050;-73
2023/09/22 05:32:31;;;;;;;13.75;7.00;;;;;;;;;;6324538;28;20162;-73
2023/09/22 05:35:35;;;;;;;11.30;6.95;;;;;;;;;;6334701;28;20134;-73
2023/09/22 05:38:37;;;;;;;10.68;6.88;;;;;;;;;;6308920;28;20068;-73
2023/09/22 05:41:47;;;;;;;13.55;7.30;;;;;;;;;;6323931;28;20048;-73
2023/09/22 05:44:51;;;;;;;11.85;7.68;;;;;;;;;;6311756;28;20047;-73
2023/09/22 05:47:53;;;;;;;11.80;6.97;;;;;;;;;;6333619;28;20055;-73
2023/09/22 05:50:57;;;;;;;9.20;6.00;;;;;;;;;;6335531;28;20040;-72
2023/09/22 05:54:01;;;;;;;12.30;6.63;;;;;;;;;;6316665;28;20123;-73
2023/09/22 05:57:04;;;;;;;9.50;7.72;;;;;;;;;;6328538;28;20048;-73
2023/09/22 06:00:10;;;;;;;12.30;7.22;;;;;;;;;;6330472;28;20040;-73
2023/09/22 06:03:12;;;;;;;10.90;6.03;;;;;;;;;;6307047;28;20055;-73
2023/09/22 06:06:15;;;;;;;8.38;5.90;;;;;;;;;;6328237;28;20159;-74
2023/09/22 06:09:21;;;;;;;9.02;5.43;;;;;;;;;;6340547;28;20143;-73
2023/09/22 06:12:23;;;;;;;9.25;4.25;;;;;;;;;;6297425;28;20093;-73
2023/09/22 06:15:27;;;;;;;10.80;6.75;;;;;;;;;;6313913;28;20043;-73
2023/09/22 06:18:31;;;;;;;10.77;6.57;;;;;;;;;;6332577;28;20055;-74
2023/09/22 06:21:34;;;;;;;10.38;6.57;;;;;;;;;;6335699;28;20066;-73
2023/09/22 06:24:40;;;;;;;9.98;6.25;;;;;;;;;;6322291;28;20043;-73
2023/09/22 06:27:45;;;;;;;8.98;5.63;;;;;;;;;;6331801;28;20043;-74
2023/09/22 06:30:49;;;;;;;10.63;4.50;;;;;;;;;;6325093;28;20054;-72
2023/09/22 06:33:54;;;;;;;8.00;3.97;;;;;;;;;;6334807;28;20044;-73
2023/09/22 06:36:57;;;;;;;8.93;4.78;;;;;;;;;;6336772;28;20544;-73
2023/09/22 06:40:06;;;;;;;9.35;3.88;;;;;;;;;;6336406;28;20840;-75
2023/09/22 06:43:08;;;;;;;13.60;4.70;;;;;;;;;;6333784;28;20921;-76
2023/09/22 06:46:26;;;;;;;9.63;5.90;;;;;;;;;;6323286;28;20035;-72
2023/09/22 06:49:30;;;;;;;11.82;5.68;;;;;;;;;;6331936;28;20778;-73
2023/09/22 06:52:32;;;;;;;10.02;5.53;;;;;;;;;;6307254;28;20046;-72
2023/09/22 06:55:34;;;;;;;8.35;5.68;;;;;;;;;;6328548;28;20751;-73
2023/09/22 06:58:40;;;;;;;9.40;3.63;;;;;;;;;;6330337;28;20050;-70
2023/09/22 07:01:42;;;;;;;9.07;3.88;;;;;;;;;;6309630;28;20074;-69
2023/09/22 07:04:45;;;;;;;7.60;4.10;;;;;;;;;;6333927;27;20418;-78
2023/09/22 07:07:49;;;;;;;6.95;3.75;;;;;;;;;;6297479;28;20044;-73
2023/09/22 07:11:00;;;;;;;8.07;3.80;;;;;;;;;;6304547;28;20059;-76
2023/09/22 07:14:02;;;;;;;7.15;3.70;;;;;;;;;;6329865;28;20047;-67
2023/09/22 07:17:08;;;;;;;9.07;3.78;;;;;;;;;;6328345;28;20130;-72
2023/09/22 07:20:14;;;;;;;8.70;3.17;;;;;;;;;;6338988;27;20602;-70
2023/09/22 07:23:17;;;;;;;7.65;3.75;;;;;;;;;;6334043;28;20051;-65
2023/09/22 07:26:19;;;;;;;7.00;4.90;;;;;;;;;;6320496;28;20043;-73
2023/09/22 07:29:22;;;;;;;9.93;2.97;;;;;;;;;;6334906;28;20160;-69
2023/09/22 07:32:24;;;;;;;11.35;5.53;;;;;;;;;;6325819;28;20062;-74
2023/09/22 07:35:26;;;;;;;6.97;5.25;;;;;;;;;;6328721;28;20042;-74
2023/09/22 07:38:29;;;;;;;7.20;5.55;;;;;;;;;;6336418;28;20048;-73
2023/09/22 07:41:31;;;;;;;10.48;6.00;;;;;;;;;;6313429;28;20055;-74
2023/09/22 07:44:34;;;;;;;8.52;3.70;;;;;;;;;;6305014;28;20067;-74
2023/09/22 07:47:38;;;;;;;8.43;3.30;;;;;;;;;;6338703;28;20482;-72
2023/09/22 07:50:40;;;;;;;8.48;3.55;;;;;;;;;;6329474;28;20159;-77
2023/09/22 07:53:44;;;;;;;9.23;3.80;;;;;;;;;;6291732;28;20058;-72
2023/09/22 07:56:46;;;;;;;9.48;4.22;;;;;;;;;;6328670;28;20525;-73
2023/09/22 07:59:49;;;;;;;7.60;3.80;;;;;;;;;;6329841;28;20054;-68
2023/09/22 08:02:51;;;;;;;11.15;5.38;;;;;;;;;;6310094;28;20043;-68
2023/09/22 08:05:53;;;;;;;12.30;6.47;;;;;;;;;;6316327;27;20047;-68
2023/09/22 08:08:56;;;;;;;9.35;5.15;;;;;;;;;;6335761;28;20042;-68
2023/09/22 08:11:58;;;;;;;9.70;5.50;;;;;;;;;;6335860;28;20133;-68
2023/09/22 08:15:01;;;;;;;7.80;3.38;;;;;;;;;;6334870;28;20075;-68
2023/09/22 08:18:05;;;;;;;8.82;4.07;;;;;;;;;;6335995;27;20136;-68
2023/09/22 08:21:08;;;;;;;9.60;3.40;;;;;;;;;;6327577;28;20084;-68
2023/09/22 08:24:11;;;;;;;17.55;12.65;;;;;;;;;;6336329;28;20092;-69
2023/09/22 08:27:14;;;;;;;10.68;5.90;;;;;;;;;;6335640;28;20584;-68
2023/09/22 08:30:19;;;;;;;11.77;4.80;;;;;;;;;;6336661;28;20040;-68
2023/09/22 08:33:21;;;;;;;7.97;3.85;;;;;;;;;;6337104;28;20050;-68
2023/09/22 08:36:23;;;;;;;8.02;5.28;;;;;;;;;;6336979;28;20644;-68
2023/09/22 08:39:26;;;;;;;9.20;4.20;;;;;;;;;;6336563;28;20115;-68
2023/09/22 08:42:29;;;;;;;7.78;3.72;;;;;;;;;;6336968;28;20043;-66
2023/09/22 08:45:31;;;;;;;9.75;5.80;;;;;;;;;;6336731;28;20051;-68
2023/09/22 08:48:34;;;;;;;8.60;6.15;;;;;;;;;;6336078;28;20170;-68
2023/09/22 08:51:37;;;;;;;14.38;4.80;;;;;;;;;;6336776;28;20743;-68
2023/09/22 08:54:39;;;;;;;8.90;4.50;;;;;;;;;;6336115;28;20052;-68
2023/09/22 08:57:47;;;;;;;11.25;5.15;;;;;;;;;;6337144;28;20180;-68
2023/09/22 09:00:51;;;;;;;11.70;6.03;;;;;;;;;;6333246;28;20059;-68
2023/09/22 09:03:54;;;;;;;8.05;2.95;;;;;;;;;;6324375;28;20090;-64
2023/09/22 09:06:56;;;;;;;7.95;3.53;;;;;;;;;;6326225;28;20088;-64
2023/09/22 09:09:59;;;;;;;10.52;4.30;;;;;;;;;;6329432;28;20430;-64
2023/09/22 09:13:02;;;;;;;9.73;4.63;;;;;;;;;;6317241;28;20043;-64
2023/09/22 09:16:07;;;;;;;13.05;5.55;;;;;;;;;;6324998;28;20047;-64
2023/09/22 09:19:16;;;;;;;10.88;6.80;;;;;;;;;;6329462;28;20044;-64
2023/09/22 09:22:18;;;;;;;9.38;5.45;;;;;;;;;;6322662;27;20040;-64
2023/09/22 09:25:20;;;;;;;21.08;9.95;;;;;;;;;;6327806;28;20044;-64
2023/09/22 09:28:23;;;;;;;9.23;4.68;;;;;;;;;;6323717;28;20056;-65
2023/09/22 09:31:45;;;;;;;9.60;4.72;;;;;;;;;;6318094;28;20067;-65
2023/09/22 09:34:48;;;;;;;9.82;5.38;;;;;;;;;;6327449;28;20043;-64
2023/09/22 09:38:02;;;;;;;13.10;4.63;;;;;;;;;;6333426;28;20083;-71
2023/09/22 09:41:06;;;;;;;9.48;5.38;;;;;;;;;;6341031;28;20052;-76
2023/09/22 09:44:09;;;;;;;8.60;4.10;;;;;;;;;;6348145;27;20054;-73
2023/09/22 09:47:26;;;;;;;11.75;5.43;;;;;;;;;;6333819;28;20123;-71
2023/09/22 09:50:33;;;;;;;14.95;6.28;;;;;;;;;;6324748;28;20128;-71
2023/09/22 09:53:45;;;;;;;10.07;5.60;;;;;;;;;;6318169;28;20048;-69
2023/09/22 09:56:49;;;;;;;11.88;4.63;;;;;;;;;;6326243;28;20039;-65
2023/09/22 09:59:52;;;;;;;10.07;4.80;;;;;;;;;;6328481;28;20047;-65
2023/09/22 10:02:57;;;;;;;7.00;4.70;;;;;;;;;;6315573;28;20044;-65
2023/09/22 10:06:02;;;;;;;8.65;4.10;;;;;;;;;;6321134;28;20094;-65
2023/09/22 10:09:09;;;;;;;11.68;4.45;;;;;;;;;;6324811;28;20047;-65
2023/09/22 10:12:13;;;;;;;11.48;3.22;;;;;;;;;;6324904;28;20595;-65
2023/09/22 10:15:15;;;;;;;15.15;5.18;;;;;;;;;;6314315;28;20059;-65
2023/09/22 10:18:17;;;;;;;10.95;3.03;;;;;;;;;;6322375;28;20441;-65
2023/09/22 10:21:28;;;;;;;10.38;5.10;;;;;;;;;;6331513;28;20184;-65
2023/09/22 10:24:33;;;;;;;12.15;4.18;;;;;;;;;;6337671;28;20040;-65
2023/09/22 10:27:54;;;;;;;12.30;4.20;;;;;;;;;;6333309;28;20869;-65
2023/09/22 10:31:04;;;;;;;11.75;4.35;;;;;;;;;;6330836;28;20077;-66
2023/09/22 10:34:44;;;;;;;9.93;3.15;;;;;;;;;;6324318;28;20454;-66
2023/09/22 10:38:06;;;;;;;10.90;5.20;;;;;;;;;;6326524;28;20048;-66
2023/09/22 10:41:09;;;;;;;11.18;5.07;;;;;;;;;;6329540;28;20787;-65
2023/09/22 10:44:11;;;;;;;11.93;5.35;;;;;;;;;;6333855;28;20050;-64
2023/09/22 10:47:13;;;;;;;14.30;7.18;;;;;;;;;;6330354;28;20055;-63
2023/09/22 10:50:30;;;;;;;22.88;14.32;;;;;;;;;;6329415;28;20050;-65
2023/09/22 10:53:38;;;;;;;10.68;2.88;;;;;;;;;;6325460;28;20914;-65
2023/09/22 10:56:40;;;;;;;10.32;5.82;;;;;;;;;;6332838;28;20625;-65
2023/09/22 10:59:42;;;;;;;16.65;3.85;;;;;;;;;;6334625;28;20765;-65
2023/09/22 11:02:45;;;;;;;12.25;7.90;;;;;;;;;;6332157;28;20134;-65
2023/09/22 11:06:00;;;;;;;9.90;5.00;;;;;;;;;;6336855;28;20039;-65
2023/09/22 11:09:05;;;;;;;13.20;3.17;;;;;;;;;;6329150;28;20430;-65
2023/09/22 11:12:07;;;;;;;16.33;4.65;;;;;;;;;;6331035;28;20043;-65
2023/09/22 11:15:09;;;;;;;9.30;4.05;;;;;;;;;;6337237;28;20036;-66
2023/09/22 11:18:18;;;;;;;14.13;4.70;;;;;;;;;;6337547;28;20138;-65
2023/09/22 11:21:23;;;;;;;13.50;5.18;;;;;;;;;;6322516;28;20052;-75
2023/09/22 11:24:27;;;;;;;15.73;5.13;;;;;;;;;;6328870;28;20104;-74
2023/09/22 11:27:29;;;;;;;17.60;5.38;;;;;;;;;;6333503;28;20129;-69
2023/09/22 11:30:33;;;;;;;11.57;4.28;;;;;;;;;;6333625;28;20126;-74
2023/09/22 11:33:37;;;;;;;12.68;5.28;;;;;;;;;;6298437;27;20039;-74
2023/09/22 11:36:53;;;;;;;16.15;4.82;;;;;;;;;;6335474;27;20180;-74
2023/09/22 11:39:57;;;;;;;14.18;6.97;;;;;;;;;;6339177;28;20436;-74
2023/09/22 11:43:00;;;;;;;33.53;26.27;;;;;;;;;;6346943;27;20070;-74
2023/09/22 11:46:11;;;;;;;12.95;4.63;;;;;;;;;;6341128;27;20040;-74
2023/09/22 11:49:16;;;;;;;16.73;5.47;;;;;;;;;;6307897;27;20058;-72
2023/09/22 11:52:29;;;;;;;11.80;4.85;;;;;;;;;;6343250;27;20038;-73
2023/09/22 11:55:31;;;;;;;15.40;4.72;;;;;;;;;;6341823;27;20133;-71
2023/09/22 11:58:33;;;;;;;12.88;4.45;;;;;;;;;;6350812;27;20069;-74
2023/09/22 12:01:36;;;;;;;11.00;4.57;;;;;;;;;;6344235;27;20046;-75
2023/09/22 12:04:39;;;;;;;13.00;4.75;;;;;;;;;;6333493;27;20039;-73
2023/09/22 12:07:41;;;;;;;19.30;5.55;;;;;;;;;;6327851;28;20043;-70
2023/09/22 12:10:43;;;;;;;16.73;4.47;;;;;;;;;;6327472;28;20055;-71
2023/09/22 12:13:46;;;;;;;16.05;5.28;;;;;;;;;;6330439;28;20098;-69
2023/09/22 12:16:51;;;;;;;15.40;4.47;;;;;;;;;;6336991;28;20058;-71
2023/09/22 12:19:54;;;;;;;9.95;5.47;;;;;;;;;;6337702;28;20101;-69
2023/09/22 12:22:56;;;;;;;14.60;4.38;;;;;;;;;;6336400;28;20225;-70
2023/09/22 12:25:58;;;;;;;18.02;5.10;;;;;;;;;;6321260;28;20043;-70
2023/09/22 12:29:04;;;;;;;16.55;5.85;;;;;;;;;;6334391;28;20077;-71
2023/09/22 12:32:07;;;;;;;17.73;5.28;;;;;;;;;;6339617;28;20047;-77
2023/09/22 12:35:10;;;;;;;16.30;4.72;;;;;;;;;;6346632;28;20172;-71
2023/09/22 12:38:12;;;;;;;16.65;6.10;;;;;;;;;;6350006;28;20043;-73
2023/09/22 12:41:15;;;;;;;32.35;28.58;;;;;;;;;;6335216;28;20823;-78
2023/09/22 12:44:22;;;;;;;13.35;5.53;;;;;;;;;;6340364;28;20050;-73
2023/09/22 12:47:26;;;;;;;12.80;5.43;;;;;;;;;;6334977;28;20040;-73
2023/09/22 12:50:28;;;;;;;20.63;4.90;;;;;;;;;;6322180;28;20042;-72
2023/09/22 12:53:30;;;;;;;16.85;3.45;;;;;;;;;;6336762;28;20516;-71
2023/09/22 12:56:34;;;;;;;17.50;4.88;;;;;;;;;;6320517;28;20144;-73
2023/09/22 12:59:36;;;;;;;14.75;4.35;;;;;;;;;;6335881;28;20055;-72
2023/09/22 13:02:39;;;;;;;17.90;4.53;;;;;;;;;;6336976;28;20043;-72
2023/09/22 13:05:42;;;;;;;14.45;5.68;;;;;;;;;;6317273;28;20036;-72
2023/09/22 13:08:44;;;;;;;12.90;4.50;;;;;;;;;;6343589;27;20181;-72
2023/09/22 13:11:47;;;;;;;15.05;4.13;;;;;;;;;;6330518;28;20589;-72
2023/09/22 13:14:54;;;;;;;14.70;4.47;;;;;;;;;;6335652;28;20055;-72
2023/09/22 13:17:57;;;;;;;11.55;4.20;;;;;;;;;;6331108;28;20136;-72
2023/09/22 13:20:59;;;;;;;13.55;3.88;;;;;;;;;;6331599;28;20043;-70
2023/09/22 13:24:03;;;;;;;14.55;4.47;;;;;;;;;;6336610;28;20065;-71
2023/09/22 13:27:05;;;;;;;;;;;;;;;;;;6323182;28;20044;-71
2023/09/22 13:30:09;;;;;;;14.38;4.70;;;;;;;;;;6324916;28;19980;-69
2023/09/22 13:33:12;;;;;;;18.23;5.22;;;;;;;;;;6336580;28;20051;-69
2023/09/22 13:36:18;;;;;;;13.95;5.15;;;;;;;;;;6329826;28;20047;-69
2023/09/22 13:39:20;;;;;;;14.00;4.82;;;;;;;;;;6303127;28;20078;-67
2023/09/22 13:42:23;;;;;;;17.33;4.57;;;;;;;;;;6330659;28;20038;-72
2023/09/22 13:45:25;;;;;;;18.40;5.07;;;;;;;;;;6327033;28;20063;-75
2023/09/22 13:48:27;;;;;;;22.10;8.30;;;;;;;;;;6312538;28;20047;-72
2023/09/22 13:51:33;;;;;;;18.90;5.47;;;;;;;;;;6330313;28;20044;-75
2023/09/22 13:54:36;;;;;;;16.67;4.85;;;;;;;;;;6337290;28;20047;-72
2023/09/22 13:57:39;;;;;;;33.13;12.60;;;;;;;;;;6348995;28;20031;-73
2023/09/22 14:00:41;;;;;;;18.17;5.38;;;;;;;;;;6329731;28;20051;-73
2023/09/22 14:03:43;;;;;;;103.88;57.83;;;;;;;;;;6341389;28;20130;-73
2023/09/22 14:06:46;;;;;;;41.97;16.08;;;;;;;;;;6318125;28;20047;-72
2023/09/22 14:09:51;;;;;;;38.92;19.15;;;;;;;;;;6340545;28;20176;-74
2023/09/22 14:12:54;;;;;;;21.75;9.95;;;;;;;;;;6311309;28;20526;-73
2023/09/22 14:15:56;;;;;;;15.52;5.07;;;;;;;;;;6338381;28;20522;-73
2023/09/22 14:18:59;;;;;;;19.90;4.60;;;;;;;;;;6320588;28;20044;-72
2023/09/22 14:22:02;;;;;;;14.65;5.05;;;;;;;;;;6338873;28;20055;-75
2023/09/22 14:25:07;;;;;;;18.48;4.63;;;;;;;;;;6345579;28;20146;-74
2023/09/22 14:28:11;;;;;;;16.08;3.95;;;;;;;;;;6323173;28;20302;-72
2023/09/22 14:31:16;;;;;;;16.70;4.80;;;;;;;;;;6340564;28;20059;-74
2023/09/22 14:34:19;;;;;;;17.77;5.45;;;;;;;;;;6326193;28;20582;-73
2023/09/22 14:37:23;;;;;;;16.52;5.28;;;;;;;;;;6337287;28;20140;-75
2023/09/22 14:40:30;;;;;;;;;;;;;;;;;;6330618;28;20039;-74
2023/09/22 14:43:33;;;;;;;12.00;4.03;;;;;;;;;;6359083;28;19981;-74
2023/09/22 14:46:35;;;;;;;17.17;4.53;;;;;;;;;;6353357;28;20036;-74
2023/09/22 14:49:41;;;;;;;19.75;5.47;;;;;;;;;;6308853;28;20047;-75
2023/09/22 14:52:49;;;;;;;22.23;5.32;;;;;;;;;;6350198;28;20135;-76
2023/09/22 14:55:52;;;;;;;14.02;4.80;;;;;;;;;;6347022;28;20075;-76
2023/09/22 14:58:54;;;;;;;19.33;5.78;;;;;;;;;;6353597;28;20199;-73
2023/09/22 15:01:57;;;;;;;16.55;4.43;;;;;;;;;;6343340;28;20047;-70
2023/09/22 15:04:59;;;;;;;17.38;5.38;;;;;;;;;;6325161;28;20054;-63
2023/09/22 15:08:01;;;;;;;30.35;7.53;;;;;;;;;;6327044;28;20127;-64
2023/09/22 15:11:04;;;;;;;18.48;6.22;;;;;;;;;;6329410;28;20052;-63
2023/09/22 15:14:06;;;;;;;19.35;5.43;;;;;;;;;;6323024;28;20043;-70
2023/09/22 15:17:09;;;;;;;24.17;7.00;;;;;;;;;;6346555;28;20032;-76
2023/09/22 15:20:13;;;;;;;40.25;11.10;;;;;;;;;;6342890;28;20059;-76
2023/09/22 15:23:19;;;;;;;19.02;7.68;;;;;;;;;;6343040;28;20048;-76
2023/09/22 15:26:23;;;;;;;21.15;8.20;;;;;;;;;;6362104;28;20047;-77
2023/09/22 15:29:30;;;;;;;23.55;6.88;;;;;;;;;;6328388;28;20047;-76
2023/09/22 15:32:32;;;;;;;23.40;6.60;;;;;;;;;;6348763;28;20116;-76
2023/09/22 15:35:41;;;;;;;22.48;8.00;;;;;;;;;;6351729;28;20055;-77
2023/09/22 15:38:46;;;;;;;25.15;8.07;;;;;;;;;;6349425;28;20509;-76
2023/09/22 15:41:49;;;;;;;23.15;7.32;;;;;;;;;;6321165;28;20593;-74
2023/09/22 15:44:53;;;;;;;26.17;8.82;;;;;;;;;;6360079;28;20042;-73
2023/09/22 15:47:55;;;;;;;25.02;11.52;;;;;;;;;;6321081;28;20039;-77
2023/09/22 15:50:59;;;;;;;28.40;9.50;;;;;;;;;;6325682;28;20115;-75
2023/09/22 15:54:01;;;;;;;23.55;8.90;;;;;;;;;;6352491;28;20047;-73
2023/09/22 15:57:03;;;;;;;23.85;11.02;;;;;;;;;;6322933;28;20601;-70
2023/09/22 16:00:07;;;;;;;23.38;7.43;;;;;;;;;;6320076;28;20127;-69
2023/09/22 16:03:09;;;;;;;18.58;6.55;;;;;;;;;;6337110;28;20711;-70
2023/09/22 16:06:14;;;;;;;20.55;7.00;;;;;;;;;;6334963;28;20040;-70
2023/09/22 16:09:16;;;;;;;20.02;6.70;;;;;;;;;;6325110;28;20095;-71
2023/09/22 16:12:18;;;;;;;16.05;4.90;;;;;;;;;;6334716;28;20744;-70
2023/09/22 16:15:21;;;;;;;23.20;6.88;;;;;;;;;;6334918;28;20042;-69
2023/09/22 16:18:23;;;;;;;16.08;6.00;;;;;;;;;;6323157;27;20731;-70
2023/09/22 16:21:25;;;;;;;14.68;5.40;;;;;;;;;;6335831;28;20528;-69
2023/09/22 16:24:29;;;;;;;15.80;4.68;;;;;;;;;;6336073;28;20055;-70
2023/09/22 16:27:31;;;;;;;14.93;3.78;;;;;;;;;;6320148;28;20684;-69
2023/09/22 16:30:34;;;;;;;11.75;5.70;;;;;;;;;;6336920;28;20140;-69
2023/09/22 16:33:38;;;;;;;10.13;3.20;;;;;;;;;;6346891;28;20051;-74
2023/09/22 16:36:40;;;;;;;10.23;3.30;;;;;;;;;;6342422;28;20043;-74
2023/09/22 16:39:44;;;;;;;12.48;3.83;;;;;;;;;;6352133;27;20043;-74
2023/09/22 16:42:46;;;;;;;13.32;5.07;;;;;;;;;;6345260;28;20050;-74
2023/09/22 16:45:48;;;;;;;18.60;3.28;;;;;;;;;;6318954;28;20063;-75
2023/09/22 16:48:51;;;;;;;14.65;4.20;;;;;;;;;;6343748;28;20040;-74
2023/09/22 16:51:54;;;;;;;13.82;3.50;;;;;;;;;;6344247;28;20056;-74
2023/09/22 16:54:56;;;;;;;18.48;6.00;;;;;;;;;;6316006;28;20119;-74
2023/09/22 16:57:58;;;;;;;19.50;7.95;;;;;;;;;;6311857;28;20058;-64
2023/09/22 17:01:00;;;;;;;13.82;9.73;;;;;;;;;;6331246;28;20051;-65
2023/09/22 17:04:04;;;;;;;15.40;5.63;;;;;;;;;;6334316;28;20131;-64
2023/09/22 17:07:06;;;;;;;10.82;6.50;;;;;;;;;;6332715;27;20044;-65
2023/09/22 17:10:11;;;;;;;17.85;6.75;;;;;;;;;;6334072;27;20051;-64
2023/09/22 17:13:14;;;;;;;11.73;6.38;;;;;;;;;;6341943;27;20185;-64
2023/09/22 17:16:16;;;;;;;12.45;3.58;;;;;;;;;;6327624;27;20415;-64
2023/09/22 17:19:20;;;;;;;12.10;5.18;;;;;;;;;;6327110;27;20039;-63
2023/09/22 17:22:23;;;;;;;13.90;3.42;;;;;;;;;;6309317;28;20442;-64
2023/09/22 17:25:25;;;;;;;10.52;3.42;;;;;;;;;;6337260;28;20158;-76
2023/09/22 17:28:29;;;;;;;14.25;6.72;;;;;;;;;;6330840;28;20040;-75
2023/09/22 17:31:32;;;;;;;17.38;6.15;;;;;;;;;;6319538;28;20043;-75
2023/09/22 17:34:35;;;;;;;14.75;4.85;;;;;;;;;;6330203;28;20134;-75
2023/09/22 17:37:37;;;;;;;11.05;5.18;;;;;;;;;;6309644;28;20039;-75
2023/09/22 17:40:48;;;;;;;11.38;5.43;;;;;;;;;;6311750;28;20051;-75
2023/09/22 17:43:52;;;;;;;18.73;6.38;;;;;;;;;;6338178;28;20036;-75
2023/09/22 17:46:56;;;;;;;15.05;3.65;;;;;;;;;;6335622;28;20441;-72
2023/09/22 17:49:59;;;;;;;13.48;5.05;;;;;;;;;;6335991;28;20763;-75
2023/09/22 17:53:09;;;;;;;14.35;4.25;;;;;;;;;;6314844;28;20075;-77
2023/09/22 17:56:12;;;;;;;12.38;2.53;;;;;;;;;;6330854;28;20488;-74
2023/09/22 17:59:14;;;;;;;12.75;3.00;;;;;;;;;;6318873;28;20434;-76
2023/09/22 18:02:17;;;;;;;11.13;4.95;;;;;;;;;;6286417;28;20184;-76
2023/09/22 18:05:19;;;;;;;16.80;5.18;;;;;;;;;;6323212;28;20067;-75
2023/09/22 18:08:22;;;;;;;14.32;3.00;;;;;;;;;;6304694;28;20426;-77
2023/09/22 18:11:26;;;;;;;10.15;2.80;;;;;;;;;;6329869;28;20048;-78